< Typhoon 198201 1982 Season Typhoon 198203 >
Typhoon 198202 (NELSON)
General InformationTrack Information on Google MapsDetailed Wind InformationList of All Images || Disaster Info.ResourceGoogle EarthGE AnimationAtom FeedGeoJSON
Detalied Best Track (Time Zone = UTC)
Year Month Day Hour Lat. Long. Pressure (hPa) Wind (kt) Class Image Chart
1982 3 18 00 4.0 161.0 1004 0 2 Image Chart
1982 3 18 06 4.5 159.5 1004 0 2 Image Chart
1982 3 18 12 4.8 158.0 1004 0 2 Image Chart
1982 3 18 18 5.1 156.5 1002 0 2 Image Chart
1982 3 19 00 5.6 155.2 1000 0 2 Image Chart
1982 3 19 06 6.1 153.8 996 40 3 Image Chart
1982 3 19 12 6.4 152.4 996 45 3 Image Chart
1982 3 19 18 6.7 151.0 996 35 3 Image Chart
1982 3 20 00 6.9 149.5 996 40 3 Image Chart
1982 3 20 06 7.0 148.6 994 40 3 Image Chart
1982 3 20 12 7.1 147.4 994 40 3 Image Chart
1982 3 20 18 7.3 146.4 994 40 3 Image Chart
1982 3 21 00 7.5 145.6 994 40 3 Image Chart
1982 3 21 06 7.7 144.5 994 40 3 Image Chart
1982 3 21 12 7.9 143.0 990 55 4 Image Chart
1982 3 21 18 8.0 141.4 980 55 4 Image Chart
1982 3 22 00 8.2 139.8 975 60 4 Image Chart
1982 3 22 06 8.4 138.1 985 55 4 Image Chart
1982 3 22 12 8.7 136.4 985 55 4 Image Chart
1982 3 22 18 8.9 134.8 985 55 4 Image Chart
1982 3 23 00 9.1 133.7 985 55 4 Image Chart
1982 3 23 06 9.1 132.4 985 55 4 Image Chart
1982 3 23 12 9.1 131.4 985 55 4 Image Chart
1982 3 23 18 9.3 130.4 985 55 4 Image Chart
1982 3 24 00 9.6 129.6 975 55 4 Image Chart
1982 3 24 06 9.8 128.8 955 80 5 Image Chart
1982 3 24 12 9.8 128.0 950 100 5 Image Chart
1982 3 24 18 9.9 127.6 945 100 5 Image Chart
1982 3 25 00 10.0 127.2 940 100 5 Image Chart
1982 3 25 06 10.2 126.9 935 100 5 Image Chart
1982 3 25 12 10.4 126.4 940 100 5 Image Chart
1982 3 25 18 10.5 125.5 950 85 5 Image Chart
1982 3 26 00 10.5 124.7 960 90 5 Image Chart
1982 3 26 06 10.7 124.0 970 80 5 Image Chart
1982 3 26 12 10.9 123.2 980 65 5 Image Chart
1982 3 26 18 11.1 122.4 990 55 4 Image Chart
1982 3 27 00 11.3 121.5 990 55 4 Image Chart
1982 3 27 06 11.4 120.6 990 55 4 Image Chart
1982 3 27 12 11.6 119.8 990 50 4 Image Chart
1982 3 27 18 12.0 119.1 992 45 3 Image Chart
1982 3 28 00 12.4 118.3 996 40 3 Image Chart
1982 3 28 06 12.8 117.7 994 40 3 Image Chart
1982 3 28 12 13.3 117.2 990 50 4 Image Chart
1982 3 28 18 14.0 116.4 990 55 4 Image Chart
1982 3 29 00 14.5 115.8 990 55 4 Image Chart
1982 3 29 06 15.0 115.6 990 50 4 Image Chart
1982 3 29 12 15.0 115.3 992 50 4 Image Chart
1982 3 29 18 14.7 115.1 994 40 3 Image Chart
1982 3 30 00 14.5 115.0 1000 0 2 Image Chart
1982 3 30 06 14.2 114.8 1004 0 2 Image Chart
1982 3 30 12 13.7 114.5 1008 0 2 Image Chart
1982 3 30 18 13.3 114.2 1008 0 2 Image Chart
1982 3 31 00 13.1 114.0 1008 0 2 Image Chart
1982 3 31 06 13.0 113.5 1008 0 2 Image Chart
1982 3 31 12 13.0 113.0 1008 0 2 Image Chart
Japan Meteorological Agency Best Track Data | Correction Date : 1993-07-19
< Typhoon 198201 1982 Season Typhoon 198203 >

Help